Time;durP1;ratioP1;P1;durP2;ratioP2;P2;SDS_P1;SDS_P2;PMS_P1;PMS_P2;Temp;Humidity;BMP_temperature;BMP_pressure;BME280_temperature;BME280_humidity;BME280_pressure;Samples;Min_cycle;Max_cycle;Signal;HPM_P1;HPM_P2
2023/03/30 00:00:58;;;;;;;2.65;0.20;;;;;;;;;;5032613;28;20045;-60
2023/03/30 00:03:26;;;;;;;0.45;0.30;;;;;;;;;;5033570;28;20052;-61
2023/03/30 00:05:56;;;;;;;1.85;0.50;;;;;;;;;;5031803;28;20183;-60
2023/03/30 00:08:26;;;;;;;1.02;0.38;;;;;;;;;;5035859;28;20098;-61
2023/03/30 00:11:02;;;;;;;1.17;0.47;;;;;;;;;;5032735;28;20045;-60
2023/03/30 00:13:32;;;;;;;3.97;0.50;;;;;;;;;;5030983;28;20049;-62
2023/03/30 00:16:01;;;;;;;0.63;0.40;;;;;;;;;;5031321;28;20482;-62
2023/03/30 00:18:29;;;;;;;0.28;0.20;;;;;;;;;;5035471;28;20528;-61
2023/03/30 00:20:58;;;;;;;4.95;0.30;;;;;;;;;;5033885;28;20053;-64
2023/03/30 00:23:27;;;;;;;1.70;0.60;;;;;;;;;;5032515;28;20045;-66
2023/03/30 00:25:55;;;;;;;2.33;0.57;;;;;;;;;;5031745;28;20128;-63
2023/03/30 00:28:25;;;;;;;1.02;0.50;;;;;;;;;;5034743;28;20404;-62
2023/03/30 00:30:54;;;;;;;1.02;0.40;;;;;;;;;;5031316;28;20049;-61
2023/03/30 00:33:22;;;;;;;2.80;0.93;;;;;;;;;;5031515;28;20075;-61
2023/03/30 00:36:04;;;;;;;0.85;0.30;;;;;;;;;;5035001;28;20048;-61
2023/03/30 00:38:33;;;;;;;6.85;0.30;;;;;;;;;;5032037;28;20749;-62
2023/03/30 00:41:01;;;;;;;0.63;0.45;;;;;;;;;;5031279;28;20072;-61
2023/03/30 00:43:32;;;;;;;5.80;0.63;;;;;;;;;;5038210;28;20053;-64
2023/03/30 00:46:00;;;;;;;1.45;0.90;;;;;;;;;;5030068;28;20042;-62
2023/03/30 00:48:30;;;;;;;0.73;0.30;;;;;;;;;;5031424;28;20059;-61
2023/03/30 00:51:00;;;;;;;2.03;0.60;;;;;;;;;;5033377;28;20063;-62
2023/03/30 00:53:30;;;;;;;0.75;0.17;;;;;;;;;;5034764;28;20044;-65
2023/03/30 00:55:59;;;;;;;6.15;0.45;;;;;;;;;;5034758;28;20045;-62
2023/03/30 00:58:28;;;;;;;0.82;0.63;;;;;;;;;;5030074;28;20049;-61
2023/03/30 01:01:00;;;;;;;0.82;0.28;;;;;;;;;;5035876;28;20543;-62
2023/03/30 01:03:31;;;;;;;0.25;0.20;;;;;;;;;;5051374;22;20028;-59
2023/03/30 01:06:01;;;;;;;0.40;0.40;;;;;;;;;;5032645;28;20469;-60
2023/03/30 01:08:31;;;;;;;4.85;0.82;;;;;;;;;;5040677;28;20082;-60
2023/03/30 01:11:00;;;;;;;0.17;0.17;;;;;;;;;;5042874;28;20049;-61
2023/03/30 01:13:29;;;;;;;0.63;0.43;;;;;;;;;;5041208;28;20076;-61
2023/03/30 01:16:06;;;;;;;0.20;0.20;;;;;;;;;;5042941;28;20079;-59
2023/03/30 01:18:41;;;;;;;0.50;0.50;;;;;;;;;;5039165;28;20140;-62
2023/03/30 01:21:30;;;;;;;1.02;0.45;;;;;;;;;;5041843;28;20087;-59
2023/03/30 01:24:14;;;;;;;6.85;0.65;;;;;;;;;;5038741;28;20083;-58
2023/03/30 01:26:54;;;;;;;0.30;0.30;;;;;;;;;;5040113;28;20135;-59
2023/03/30 01:29:30;;;;;;;2.03;0.35;;;;;;;;;;5042207;28;20195;-59
2023/03/30 01:32:19;;;;;;;0.60;0.60;;;;;;;;;;5044289;28;20053;-59
2023/03/30 01:35:04;;;;;;;1.80;0.52;;;;;;;;;;5039921;28;20051;-61
2023/03/30 01:37:57;;;;;;;4.65;2.67;;;;;;;;;;5040854;28;20072;-61
2023/03/30 01:40:28;;;;;;;1.45;0.85;;;;;;;;;;5041327;28;20071;-61
2023/03/30 01:42:58;;;;;;;0.90;0.30;;;;;;;;;;5042359;28;20489;-60
2023/03/30 01:45:31;;;;;;;0.20;0.20;;;;;;;;;;5041086;28;20049;-62
2023/03/30 01:48:06;;;;;;;0.30;0.20;;;;;;;;;;5037849;28;20103;-65
2023/03/30 01:50:38;;;;;;;0.50;0.30;;;;;;;;;;5041880;28;20106;-60
2023/03/30 01:53:10;;;;;;;4.38;0.60;;;;;;;;;;5039730;28;20482;-60
2023/03/30 01:55:42;;;;;;;0.75;0.50;;;;;;;;;;5040705;28;20494;-60
2023/03/30 01:58:13;;;;;;;0.52;0.43;;;;;;;;;;5038825;28;20397;-62
2023/03/30 02:00:42;;;;;;;4.60;0.63;;;;;;;;;;5039149;28;20037;-59
2023/03/30 02:03:13;;;;;;;0.95;0.40;;;;;;;;;;5041500;28;20139;-59
2023/03/30 02:05:42;;;;;;;1.95;0.80;;;;;;;;;;5040153;28;20051;-59
2023/03/30 02:08:13;;;;;;;1.02;0.43;;;;;;;;;;5040229;28;20136;-60
2023/03/30 02:10:44;;;;;;;3.60;0.40;;;;;;;;;;5040489;28;20374;-59
2023/03/30 02:13:13;;;;;;;0.40;0.40;;;;;;;;;;5041151;28;20057;-60
2023/03/30 02:15:45;;;;;;;1.25;0.47;;;;;;;;;;5040059;28;20051;-62
2023/03/30 02:18:13;;;;;;;0.50;0.45;;;;;;;;;;5039226;28;20053;-59
2023/03/30 02:20:41;;;;;;;0.98;0.25;;;;;;;;;;5042084;28;20613;-60
2023/03/30 02:23:10;;;;;;;1.63;0.60;;;;;;;;;;5039216;28;20049;-60
2023/03/30 02:25:38;;;;;;;1.02;0.40;;;;;;;;;;5039139;28;20156;-60
2023/03/30 02:28:08;;;;;;;0.20;0.20;;;;;;;;;;5038788;28;20095;-60
2023/03/30 02:30:39;;;;;;;2.58;0.70;;;;;;;;;;5036034;28;20057;-59
2023/03/30 02:33:09;;;;;;;0.68;0.30;;;;;;;;;;5040704;28;20405;-60
2023/03/30 02:35:51;;;;;;;5.07;0.28;;;;;;;;;;5040823;28;20041;-59
2023/03/30 02:38:41;;;;;;;9.55;0.35;;;;;;;;;;5017141;28;20045;-60
2023/03/30 02:41:14;;;;;;;0.47;0.47;;;;;;;;;;5039586;28;20037;-59
2023/03/30 02:43:51;;;;;;;0.20;0.20;;;;;;;;;;5040644;28;20482;-60
2023/03/30 02:46:28;;;;;;;1.75;0.60;;;;;;;;;;5040758;28;20045;-62
2023/03/30 02:49:00;;;;;;;5.88;0.73;;;;;;;;;;5039761;28;20425;-60
2023/03/30 02:51:34;;;;;;;0.20;0.20;;;;;;;;;;5041150;28;20520;-60
2023/03/30 02:54:11;;;;;;;2.03;0.28;;;;;;;;;;5040151;28;20051;-59
2023/03/30 02:56:45;;;;;;;2.72;0.30;;;;;;;;;;5042025;28;20477;-59
2023/03/30 02:59:18;;;;;;;2.90;0.57;;;;;;;;;;5039247;28;20041;-60
2023/03/30 03:01:49;;;;;;;2.72;1.10;;;;;;;;;;5040662;28;20052;-61
2023/03/30 03:04:20;;;;;;;1.05;0.43;;;;;;;;;;5036303;28;20053;-60
2023/03/30 03:06:51;;;;;;;0.52;0.52;;;;;;;;;;5041894;28;20041;-60
2023/03/30 03:09:20;;;;;;;5.85;0.50;;;;;;;;;;5041072;28;20048;-60
2023/03/30 03:11:48;;;;;;;0.40;0.40;;;;;;;;;;5039935;28;20052;-59
2023/03/30 03:14:19;;;;;;;0.63;0.52;;;;;;;;;;5040345;28;20529;-60
2023/03/30 03:16:48;;;;;;;1.75;0.65;;;;;;;;;;5039006;28;20045;-59
2023/03/30 03:19:16;;;;;;;2.25;0.60;;;;;;;;;;5038969;28;20056;-64
2023/03/30 03:21:44;;;;;;;0.68;0.50;;;;;;;;;;5041345;28;20059;-59
2023/03/30 03:24:16;;;;;;;3.33;0.63;;;;;;;;;;5039899;28;20467;-60
2023/03/30 03:26:44;;;;;;;0.60;0.40;;;;;;;;;;5037744;28;20146;-59
2023/03/30 03:29:12;;;;;;;17.17;0.70;;;;;;;;;;5038020;28;20053;-60
2023/03/30 03:31:42;;;;;;;2.05;0.82;;;;;;;;;;5038029;28;21727;-59
2023/03/30 03:34:11;;;;;;;1.02;0.35;;;;;;;;;;5036124;28;20045;-58
2023/03/30 03:36:39;;;;;;;0.47;0.40;;;;;;;;;;5038495;28;20052;-60
2023/03/30 03:39:08;;;;;;;1.17;0.65;;;;;;;;;;5036175;28;20043;-63
2023/03/30 03:41:36;;;;;;;0.63;0.60;;;;;;;;;;5038935;28;20047;-59
2023/03/30 03:44:05;;;;;;;4.20;0.68;;;;;;;;;;5037102;28;20049;-59
2023/03/30 03:46:33;;;;;;;1.95;0.75;;;;;;;;;;5041573;28;20051;-59
2023/03/30 03:49:03;;;;;;;2.90;1.50;;;;;;;;;;5037432;28;20105;-58
2023/03/30 03:51:32;;;;;;;2.60;0.85;;;;;;;;;;5037198;28;20053;-59
2023/03/30 03:54:01;;;;;;;0.30;0.30;;;;;;;;;;5040829;28;20049;-59
2023/03/30 03:56:29;;;;;;;3.55;0.65;;;;;;;;;;5040150;28;20048;-62
2023/03/30 03:58:58;;;;;;;1.65;0.55;;;;;;;;;;5035539;28;20045;-62
2023/03/30 04:01:28;;;;;;;8.07;0.43;;;;;;;;;;5036908;28;20508;-59
2023/03/30 04:03:56;;;;;;;1.40;0.52;;;;;;;;;;5039040;28;20053;-61
2023/03/30 04:06:27;;;;;;;5.40;1.27;;;;;;;;;;5036547;28;20410;-60
2023/03/30 04:08:55;;;;;;;3.38;0.80;;;;;;;;;;5038474;28;20057;-61
2023/03/30 04:11:23;;;;;;;1.67;1.13;;;;;;;;;;5036002;28;20072;-61
2023/03/30 04:13:52;;;;;;;0.85;0.32;;;;;;;;;;5039515;28;20037;-61
2023/03/30 04:16:20;;;;;;;3.17;0.57;;;;;;;;;;5036087;28;20142;-60
2023/03/30 04:18:49;;;;;;;0.20;0.20;;;;;;;;;;5039847;28;20045;-61
2023/03/30 04:21:19;;;;;;;6.90;0.75;;;;;;;;;;5038579;28;20047;-60
2023/03/30 04:23:48;;;;;;;7.00;0.80;;;;;;;;;;5040542;28;20067;-62
2023/03/30 04:26:17;;;;;;;2.75;1.73;;;;;;;;;;5037808;28;20037;-62
2023/03/30 04:28:45;;;;;;;4.47;0.82;;;;;;;;;;5037523;28;20144;-62
2023/03/30 04:31:14;;;;;;;3.17;0.65;;;;;;;;;;5034613;28;20048;-60
2023/03/30 04:33:49;;;;;;;0.45;0.40;;;;;;;;;;5034532;28;20071;-61
2023/03/30 04:36:19;;;;;;;2.95;0.63;;;;;;;;;;5040306;28;20060;-60
2023/03/30 04:38:57;;;;;;;1.73;0.47;;;;;;;;;;5040331;28;20053;-61
2023/03/30 04:41:32;;;;;;;1.13;1.02;;;;;;;;;;5043765;28;20406;-61
2023/03/30 04:44:01;;;;;;;4.38;1.85;;;;;;;;;;5041408;28;20055;-61
2023/03/30 04:46:29;;;;;;;2.28;0.40;;;;;;;;;;5037632;28;20099;-61
2023/03/30 04:48:58;;;;;;;2.22;0.57;;;;;;;;;;5033594;28;20473;-63
2023/03/30 04:51:26;;;;;;;0.50;0.38;;;;;;;;;;5039489;28;20513;-61
2023/03/30 04:53:56;;;;;;;4.18;1.70;;;;;;;;;;5041344;28;20057;-60
2023/03/30 04:56:25;;;;;;;1.15;0.40;;;;;;;;;;5040779;28;20049;-62
2023/03/30 04:58:53;;;;;;;2.83;0.77;;;;;;;;;;5041101;28;20140;-65
2023/03/30 05:01:21;;;;;;;0.38;0.38;;;;;;;;;;5040400;28;20056;-61
2023/03/30 05:03:50;;;;;;;19.60;2.00;;;;;;;;;;5034448;28;20061;-61
2023/03/30 05:06:20;;;;;;;7.97;1.00;;;;;;;;;;5037073;28;20135;-59
2023/03/30 05:08:48;;;;;;;0.28;0.28;;;;;;;;;;5041562;28;20064;-59
2023/03/30 05:11:18;;;;;;;9.18;0.70;;;;;;;;;;5035571;28;20309;-60
2023/03/30 05:13:46;;;;;;;0.45;0.45;;;;;;;;;;5042125;28;20067;-59
2023/03/30 05:16:15;;;;;;;2.22;0.88;;;;;;;;;;5040981;28;20052;-61
2023/03/30 05:18:43;;;;;;;5.22;0.90;;;;;;;;;;5041162;28;20045;-59
2023/03/30 05:21:12;;;;;;;0.43;0.43;;;;;;;;;;5041402;28;20418;-59
2023/03/30 05:23:41;;;;;;;0.85;0.57;;;;;;;;;;5040634;28;20051;-59
2023/03/30 05:26:10;;;;;;;2.78;1.05;;;;;;;;;;5038056;28;20053;-58
2023/03/30 05:28:41;;;;;;;9.57;0.50;;;;;;;;;;5040772;28;20041;-61
2023/03/30 05:31:10;;;;;;;6.93;0.80;;;;;;;;;;5043704;28;20053;-59
2023/03/30 05:33:38;;;;;;;1.08;0.30;;;;;;;;;;5041962;28;20041;-61
2023/03/30 05:36:11;;;;;;;8.80;0.88;;;;;;;;;;5040569;28;20095;-61
2023/03/30 05:38:39;;;;;;;9.85;1.95;;;;;;;;;;5042592;28;20442;-61
2023/03/30 05:41:08;;;;;;;2.47;1.05;;;;;;;;;;5043448;28;20048;-61
2023/03/30 05:43:36;;;;;;;8.00;0.55;;;;;;;;;;5043417;28;20051;-61
2023/03/30 05:46:06;;;;;;;5.13;0.98;;;;;;;;;;5040934;28;20049;-60
2023/03/30 05:48:35;;;;;;;6.07;1.25;;;;;;;;;;5038179;28;20069;-62
2023/03/30 05:51:03;;;;;;;3.78;2.15;;;;;;;;;;5041936;28;20051;-59
2023/03/30 05:53:32;;;;;;;1.67;0.60;;;;;;;;;;5034809;28;20422;-59
2023/03/30 05:56:00;;;;;;;2.58;0.47;;;;;;;;;;5042962;28;20139;-60
2023/03/30 05:58:29;;;;;;;4.78;0.82;;;;;;;;;;5042477;28;20504;-60
2023/03/30 06:00:58;;;;;;;2.53;1.55;;;;;;;;;;5042903;28;20433;-63
2023/03/30 06:03:28;;;;;;;2.00;0.50;;;;;;;;;;5033228;28;20053;-60
2023/03/30 06:05:57;;;;;;;6.25;1.85;;;;;;;;;;5040060;28;20099;-62
2023/03/30 06:08:26;;;;;;;0.93;0.50;;;;;;;;;;5042011;28;20709;-59
2023/03/30 06:10:54;;;;;;;5.32;0.80;;;;;;;;;;5043018;28;20059;-60
2023/03/30 06:13:24;;;;;;;5.53;0.82;;;;;;;;;;5040676;28;20409;-61
2023/03/30 06:15:52;;;;;;;6.97;1.13;;;;;;;;;;5041107;28;20072;-62
2023/03/30 06:18:21;;;;;;;4.00;0.75;;;;;;;;;;5040589;28;20037;-61
2023/03/30 06:20:51;;;;;;;1.33;0.98;;;;;;;;;;5041487;28;20562;-61
2023/03/30 06:23:20;;;;;;;0.65;0.65;;;;;;;;;;5041902;28;20057;-60
2023/03/30 06:25:51;;;;;;;3.67;0.77;;;;;;;;;;5039070;28;20103;-59
2023/03/30 06:28:20;;;;;;;2.10;0.65;;;;;;;;;;5041365;28;20057;-60
2023/03/30 06:30:48;;;;;;;0.60;0.60;;;;;;;;;;5041624;28;21130;-60
2023/03/30 06:33:17;;;;;;;2.67;0.73;;;;;;;;;;5042209;28;20056;-60
2023/03/30 06:35:46;;;;;;;1.08;0.75;;;;;;;;;;5040777;28;20054;-61
2023/03/30 06:38:16;;;;;;;0.45;0.40;;;;;;;;;;5039272;28;20147;-64
2023/03/30 06:40:45;;;;;;;1.67;0.60;;;;;;;;;;5037296;28;20556;-61
2023/03/30 06:43:16;;;;;;;1.65;1.05;;;;;;;;;;5040002;28;20098;-63
2023/03/30 06:45:49;;;;;;;3.63;0.80;;;;;;;;;;5042474;28;20106;-60
2023/03/30 06:48:19;;;;;;;2.55;0.95;;;;;;;;;;5003117;28;20487;-59
2023/03/30 06:50:48;;;;;;;8.25;0.90;;;;;;;;;;5039031;28;20470;-60
2023/03/30 06:53:17;;;;;;;1.08;0.98;;;;;;;;;;5040640;28;20413;-62
2023/03/30 06:55:50;;;;;;;3.60;1.02;;;;;;;;;;5039914;28;20059;-61
2023/03/30 06:58:19;;;;;;;3.60;0.38;;;;;;;;;;5038407;28;20486;-61
2023/03/30 07:00:47;;;;;;;0.63;0.60;;;;;;;;;;5040887;28;20135;-65
2023/03/30 07:03:17;;;;;;;3.03;0.60;;;;;;;;;;5039045;28;20132;-61
2023/03/30 07:05:48;;;;;;;7.30;1.65;;;;;;;;;;5017304;28;20115;-61
2023/03/30 07:08:18;;;;;;;5.85;0.77;;;;;;;;;;5021091;28;20045;-61
2023/03/30 07:10:47;;;;;;;3.67;0.90;;;;;;;;;;5017934;28;20136;-62
2023/03/30 07:13:16;;;;;;;0.57;0.45;;;;;;;;;;5021977;28;20112;-63
2023/03/30 07:15:45;;;;;;;0.20;0.20;;;;;;;;;;5022754;28;20217;-61
2023/03/30 07:18:14;;;;;;;6.68;0.77;;;;;;;;;;5018451;28;20147;-62
2023/03/30 07:20:42;;;;;;;7.53;1.20;;;;;;;;;;5020185;28;20045;-65
2023/03/30 07:23:11;;;;;;;1.65;0.60;;;;;;;;;;5018745;28;20124;-62
2023/03/30 07:25:41;;;;;;;1.83;1.15;;;;;;;;;;5021987;28;20045;-62
2023/03/30 07:28:09;;;;;;;4.07;0.50;;;;;;;;;;5018359;28;20053;-61
2023/03/30 07:30:38;;;;;;;5.53;0.60;;;;;;;;;;5021077;28;20486;-60
2023/03/30 07:33:07;;;;;;;0.95;0.65;;;;;;;;;;5020562;28;20096;-61
2023/03/30 07:35:35;;;;;;;3.15;0.85;;;;;;;;;;5019457;28;20049;-63
2023/03/30 07:38:04;;;;;;;5.35;0.85;;;;;;;;;;5019405;28;20124;-62
2023/03/30 07:40:32;;;;;;;5.03;0.40;;;;;;;;;;5020429;28;20104;-61
2023/03/30 07:43:02;;;;;;;2.88;0.98;;;;;;;;;;5017271;28;20057;-62
2023/03/30 07:45:30;;;;;;;0.10;0.10;;;;;;;;;;5015907;28;20275;-62
2023/03/30 07:47:58;;;;;;;6.18;1.23;;;;;;;;;;5018269;28;20053;-62
2023/03/30 07:50:27;;;;;;;3.05;1.20;;;;;;;;;;5017721;28;20049;-63
2023/03/30 07:52:55;;;;;;;3.80;0.77;;;;;;;;;;5018366;28;20053;-62
2023/03/30 07:55:24;;;;;;;0.50;0.50;;;;;;;;;;5014702;28;20063;-62
2023/03/30 07:57:52;;;;;;;1.92;0.52;;;;;;;;;;5013074;28;20133;-63
2023/03/30 08:00:22;;;;;;;2.00;1.15;;;;;;;;;;5017880;28;20056;-61
2023/03/30 08:02:51;;;;;;;0.60;0.60;;;;;;;;;;5018282;28;20583;-61
2023/03/30 08:05:19;;;;;;;4.20;2.33;;;;;;;;;;5032448;28;20061;-61
2023/03/30 08:07:48;;;;;;;0.65;0.47;;;;;;;;;;5034724;28;20045;-63
2023/03/30 08:10:16;;;;;;;1.52;0.52;;;;;;;;;;5034563;28;20045;-65
2023/03/30 08:12:45;;;;;;;1.60;1.50;;;;;;;;;;5040384;28;20053;-62
2023/03/30 08:15:13;;;;;;;8.98;1.08;;;;;;;;;;5040944;28;20057;-62
2023/03/30 08:17:43;;;;;;;8.15;0.45;;;;;;;;;;5039532;28;20075;-64
2023/03/30 08:20:11;;;;;;;3.15;1.15;;;;;;;;;;5038471;28;20049;-62
2023/03/30 08:22:40;;;;;;;0.57;0.50;;;;;;;;;;5040556;28;20429;-63
2023/03/30 08:25:09;;;;;;;1.52;1.15;;;;;;;;;;5041240;28;20049;-63
2023/03/30 08:27:37;;;;;;;12.70;1.10;;;;;;;;;;5036272;28;20783;-62
2023/03/30 08:30:06;;;;;;;6.80;0.82;;;;;;;;;;5040353;28;20128;-63
2023/03/30 08:32:35;;;;;;;1.55;1.38;;;;;;;;;;5038291;28;20041;-62
2023/03/30 08:35:05;;;;;;;0.65;0.38;;;;;;;;;;5038761;28;20041;-65
2023/03/30 08:37:33;;;;;;;8.55;0.93;;;;;;;;;;5039409;28;20148;-62
2023/03/30 08:40:04;;;;;;;4.25;1.55;;;;;;;;;;5040083;28;20056;-62
2023/03/30 08:42:47;;;;;;;8.88;0.52;;;;;;;;;;5037596;28;20041;-62
2023/03/30 08:45:17;;;;;;;4.82;0.88;;;;;;;;;;5036787;28;20059;-64
2023/03/30 08:47:47;;;;;;;9.30;0.88;;;;;;;;;;5039740;28;21193;-62
2023/03/30 08:50:19;;;;;;;0.60;0.60;;;;;;;;;;5034577;28;20056;-65
2023/03/30 08:52:47;;;;;;;0.55;0.38;;;;;;;;;;5038726;28;20151;-62
2023/03/30 08:55:19;;;;;;;4.32;1.17;;;;;;;;;;5041230;28;20441;-65
2023/03/30 08:57:51;;;;;;;5.93;0.90;;;;;;;;;;5038758;28;20049;-67
2023/03/30 09:00:26;;;;;;;1.33;1.17;;;;;;;;;;5041297;28;20505;-62
2023/03/30 09:02:59;;;;;;;0.70;0.68;;;;;;;;;;5041347;28;20076;-62
2023/03/30 09:05:31;;;;;;;3.90;0.85;;;;;;;;;;5038313;28;20462;-62
2023/03/30 09:08:02;;;;;;;3.35;0.35;;;;;;;;;;5037451;28;20048;-62
2023/03/30 09:10:32;;;;;;;1.27;0.63;;;;;;;;;;5036033;28;20353;-66
2023/03/30 09:13:01;;;;;;;1.05;0.47;;;;;;;;;;5039976;28;20136;-62
2023/03/30 09:15:30;;;;;;;0.30;0.30;;;;;;;;;;5037829;28;20148;-62
2023/03/30 09:18:02;;;;;;;2.17;0.68;;;;;;;;;;5036997;28;20140;-65
2023/03/30 09:20:33;;;;;;;2.15;0.65;;;;;;;;;;5040636;28;20059;-61
2023/03/30 09:23:03;;;;;;;1.60;0.40;;;;;;;;;;5038742;28;20413;-61
2023/03/30 09:25:34;;;;;;;3.03;0.70;;;;;;;;;;5038429;28;20498;-63
2023/03/30 09:28:07;;;;;;;0.63;0.28;;;;;;;;;;5038475;28;20045;-63
2023/03/30 09:30:38;;;;;;;3.05;1.85;;;;;;;;;;5037144;28;20501;-63
2023/03/30 09:33:11;;;;;;;0.93;0.30;;;;;;;;;;5041258;28;20057;-63
2023/03/30 09:35:41;;;;;;;2.15;0.52;;;;;;;;;;5038243;28;20459;-63
2023/03/30 09:38:12;;;;;;;1.25;1.15;;;;;;;;;;5042399;28;20056;-65
2023/03/30 09:40:48;;;;;;;1.58;0.70;;;;;;;;;;5041275;28;20144;-62
2023/03/30 09:43:20;;;;;;;3.75;0.60;;;;;;;;;;5042604;28;20101;-62
2023/03/30 09:45:48;;;;;;;8.05;0.93;;;;;;;;;;5041628;28;20049;-62
2023/03/30 09:48:17;;;;;;;7.53;0.60;;;;;;;;;;5043514;28;20052;-62
2023/03/30 09:50:47;;;;;;;2.33;0.57;;;;;;;;;;5036701;28;20044;-63
2023/03/30 09:53:20;;;;;;;9.77;1.20;;;;;;;;;;5039857;28;20075;-62
2023/03/30 09:55:58;;;;;;;3.63;0.45;;;;;;;;;;5038449;28;20048;-64
2023/03/30 09:58:30;;;;;;;2.70;0.50;;;;;;;;;;5042810;28;20140;-62
2023/03/30 10:01:02;;;;;;;4.43;0.50;;;;;;;;;;5041645;28;20068;-62
2023/03/30 10:03:31;;;;;;;0.25;0.25;;;;;;;;;;5041592;28;20518;-62
2023/03/30 10:06:08;;;;;;;2.53;0.50;;;;;;;;;;5039453;28;20049;-63
2023/03/30 10:08:41;;;;;;;4.43;0.60;;;;;;;;;;5043338;28;20095;-61
2023/03/30 10:11:10;;;;;;;1.65;0.63;;;;;;;;;;5042686;28;20049;-62
2023/03/30 10:13:41;;;;;;;0.75;0.63;;;;;;;;;;5041856;28;20118;-63
2023/03/30 10:16:13;;;;;;;1.42;1.00;;;;;;;;;;5038312;28;20052;-62
2023/03/30 10:18:42;;;;;;;1.38;0.47;;;;;;;;;;5037933;28;20056;-65
2023/03/30 10:21:21;;;;;;;0.70;0.57;;;;;;;;;;5039224;28;20139;-64
2023/03/30 10:23:59;;;;;;;0.63;0.55;;;;;;;;;;5041440;28;20461;-62
2023/03/30 10:26:30;;;;;;;1.38;0.50;;;;;;;;;;5041616;28;20064;-62
2023/03/30 10:29:03;;;;;;;2.55;0.70;;;;;;;;;;5043185;28;20084;-62
2023/03/30 10:31:34;;;;;;;5.05;0.70;;;;;;;;;;5042756;28;20131;-61
2023/03/30 10:34:03;;;;;;;2.40;1.30;;;;;;;;;;5039755;28;20048;-61
2023/03/30 10:36:35;;;;;;;7.82;1.10;;;;;;;;;;5040785;28;20134;-61
2023/03/30 10:39:06;;;;;;;7.72;1.00;;;;;;;;;;5041788;28;20498;-61
2023/03/30 10:41:36;;;;;;;4.85;0.45;;;;;;;;;;5041507;28;20041;-64
2023/03/30 10:44:16;;;;;;;3.70;0.65;;;;;;;;;;5041433;28;20119;-65
2023/03/30 10:46:44;;;;;;;5.15;1.02;;;;;;;;;;5039540;28;20537;-64
2023/03/30 10:49:17;;;;;;;0.32;0.32;;;;;;;;;;5040370;28;20049;-62
2023/03/30 10:51:54;;;;;;;1.63;0.70;;;;;;;;;;5041633;28;20417;-62
2023/03/30 10:54:26;;;;;;;1.98;0.43;;;;;;;;;;5040084;28;20048;-62
2023/03/30 10:56:55;;;;;;;2.28;0.47;;;;;;;;;;5037783;28;20056;-61
2023/03/30 10:59:35;;;;;;;2.42;1.30;;;;;;;;;;5041795;28;20076;-60
2023/03/30 11:02:18;;;;;;;7.70;0.65;;;;;;;;;;5041802;28;20135;-59
2023/03/30 11:04:48;;;;;;;2.10;1.15;;;;;;;;;;5039475;28;20381;-61
2023/03/30 11:07:21;;;;;;;4.80;0.80;;;;;;;;;;5041049;28;20049;-61
2023/03/30 11:09:54;;;;;;;0.70;0.57;;;;;;;;;;5041120;28;20041;-60
2023/03/30 11:12:24;;;;;;;2.05;0.80;;;;;;;;;;5042532;28;20524;-61
2023/03/30 11:14:56;;;;;;;2.22;0.70;;;;;;;;;;5041827;28;20045;-61
2023/03/30 11:17:27;;;;;;;4.30;0.50;;;;;;;;;;5041110;28;20056;-64
2023/03/30 11:19:58;;;;;;;1.35;0.60;;;;;;;;;;5039867;28;20167;-64
2023/03/30 11:22:33;;;;;;;0.73;0.50;;;;;;;;;;5040739;28;20047;-60
2023/03/30 11:25:04;;;;;;;3.42;1.08;;;;;;;;;;5040408;28;20053;-61
2023/03/30 11:27:35;;;;;;;1.45;0.93;;;;;;;;;;5038349;28;20486;-60
2023/03/30 11:30:09;;;;;;;2.28;0.90;;;;;;;;;;5042069;28;20062;-62
2023/03/30 11:32:42;;;;;;;2.13;0.88;;;;;;;;;;5040511;28;20480;-62
2023/03/30 11:35:13;;;;;;;6.10;0.68;;;;;;;;;;5038662;28;20068;-64
2023/03/30 11:37:46;;;;;;;1.67;1.00;;;;;;;;;;5042213;28;20059;-60
2023/03/30 11:40:17;;;;;;;4.07;0.60;;;;;;;;;;5040805;28;20049;-60
2023/03/30 11:42:47;;;;;;;6.25;1.40;;;;;;;;;;5041332;28;20053;-60
2023/03/30 11:45:21;;;;;;;11.63;1.20;;;;;;;;;;5039239;28;20069;-60
2023/03/30 11:47:58;;;;;;;2.70;1.23;;;;;;;;;;5040159;28;20045;-60
2023/03/30 11:50:29;;;;;;;1.45;0.52;;;;;;;;;;5038034;28;20048;-64
2023/03/30 11:53:07;;;;;;;8.10;2.35;;;;;;;;;;5041103;28;20041;-59
2023/03/30 11:55:41;;;;;;;0.30;0.20;;;;;;;;;;5040497;28;20041;-59
2023/03/30 11:58:15;;;;;;;1.55;0.50;;;;;;;;;;5040347;28;20045;-60
2023/03/30 12:00:49;;;;;;;2.17;0.93;;;;;;;;;;5038306;28;20045;-61
2023/03/30 12:03:22;;;;;;;0.82;0.38;;;;;;;;;;5038185;28;20389;-60
2023/03/30 12:05:55;;;;;;;6.90;0.60;;;;;;;;;;5035131;28;20077;-60
2023/03/30 12:08:34;;;;;;;5.72;1.17;;;;;;;;;;5035980;28;20114;-61
2023/03/30 12:11:07;;;;;;;0.95;0.70;;;;;;;;;;5036131;28;20132;-62
2023/03/30 12:13:35;;;;;;;1.88;0.60;;;;;;;;;;5034165;28;20127;-62
2023/03/30 12:16:20;;;;;;;1.38;0.73;;;;;;;;;;5033720;28;20132;-61
2023/03/30 12:18:58;;;;;;;1.02;0.43;;;;;;;;;;5033827;28;20119;-64
2023/03/30 12:21:32;;;;;;;1.38;0.90;;;;;;;;;;5033451;28;20041;-61
2023/03/30 12:24:04;;;;;;;1.48;0.70;;;;;;;;;;5036312;28;20042;-62
2023/03/30 12:26:36;;;;;;;0.63;0.50;;;;;;;;;;5035734;28;20052;-61
2023/03/30 12:29:10;;;;;;;1.80;0.98;;;;;;;;;;5038006;28;20072;-60
2023/03/30 12:32:03;;;;;;;0.60;0.47;;;;;;;;;;5041381;28;20056;-59
2023/03/30 12:34:33;;;;;;;6.13;1.83;;;;;;;;;;5036313;28;20107;-59
2023/03/30 12:37:03;;;;;;;0.73;0.50;;;;;;;;;;5039334;28;20127;-61
2023/03/30 12:39:35;;;;;;;2.17;0.70;;;;;;;;;;5037590;28;20064;-61
2023/03/30 12:42:05;;;;;;;2.40;0.55;;;;;;;;;;5040344;28;20756;-60
2023/03/30 12:44:41;;;;;;;3.00;0.95;;;;;;;;;;5039965;28;20128;-60
2023/03/30 12:47:18;;;;;;;2.95;1.13;;;;;;;;;;5038520;28;20486;-60
2023/03/30 12:49:53;;;;;;;2.78;0.60;;;;;;;;;;5037062;28;20143;-61
2023/03/30 12:52:27;;;;;;;0.82;0.40;;;;;;;;;;5039949;28;20045;-62
2023/03/30 12:55:05;;;;;;;1.30;0.60;;;;;;;;;;5040694;28;20049;-62
2023/03/30 12:57:40;;;;;;;0.95;0.75;;;;;;;;;;5040070;28;20458;-59
2023/03/30 13:00:08;;;;;;;;;;;;;;;;;;5044946;28;20057;-60
2023/03/30 13:02:47;;;;;;;0.93;0.85;;;;;;;;;;5043326;28;20035;-62
2023/03/30 13:05:20;;;;;;;1.13;0.70;;;;;;;;;;5041456;28;20059;-62
2023/03/30 13:07:49;;;;;;;3.25;0.55;;;;;;;;;;5041663;28;20053;-60
2023/03/30 13:10:42;;;;;;;2.38;0.85;;;;;;;;;;5043025;28;20180;-59
2023/03/30 13:13:23;;;;;;;4.88;0.75;;;;;;;;;;5043481;28;20051;-61
2023/03/30 13:15:55;;;;;;;6.93;0.80;;;;;;;;;;5042129;28;20057;-61
2023/03/30 13:18:26;;;;;;;0.82;0.32;;;;;;;;;;5043285;28;20045;-61
2023/03/30 13:21:04;;;;;;;6.47;0.68;;;;;;;;;;5040821;28;20404;-63
2023/03/30 13:23:34;;;;;;;1.08;0.50;;;;;;;;;;5041135;28;20049;-59
2023/03/30 13:26:21;;;;;;;1.13;0.50;;;;;;;;;;5042923;28;20049;-60
2023/03/30 13:29:07;;;;;;;0.75;0.75;;;;;;;;;;5043379;28;20137;-61
2023/03/30 13:31:44;;;;;;;2.07;0.57;;;;;;;;;;5044702;28;20106;-60
2023/03/30 13:34:19;;;;;;;0.52;0.35;;;;;;;;;;5044346;28;20048;-60
2023/03/30 13:36:53;;;;;;;0.30;0.30;;;;;;;;;;5042033;28;20041;-63
2023/03/30 13:39:23;;;;;;;1.92;0.77;;;;;;;;;;5043575;28;20045;-61
2023/03/30 13:41:56;;;;;;;6.13;0.50;;;;;;;;;;5041829;28;20063;-60
2023/03/30 13:44:32;;;;;;;1.02;0.30;;;;;;;;;;5041733;28;20053;-61
2023/03/30 13:47:03;;;;;;;7.97;0.60;;;;;;;;;;5043693;28;20077;-60
2023/03/30 13:49:36;;;;;;;0.45;0.45;;;;;;;;;;5040074;28;20053;-61
2023/03/30 13:52:06;;;;;;;0.30;0.30;;;;;;;;;;5041939;28;20094;-63
2023/03/30 13:54:35;;;;;;;2.85;0.60;;;;;;;;;;5042533;28;20047;-60
2023/03/30 13:57:08;;;;;;;2.08;0.65;;;;;;;;;;5042405;28;20493;-62
2023/03/30 13:59:38;;;;;;;0.30;0.30;;;;;;;;;;5041820;28;20049;-64
2023/03/30 14:02:07;;;;;;;2.97;0.28;;;;;;;;;;5042026;28;20521;-65
2023/03/30 14:04:37;;;;;;;0.45;0.30;;;;;;;;;;5034487;28;20379;-64
2023/03/30 14:07:14;;;;;;;1.60;0.60;;;;;;;;;;5036225;28;20049;-64
2023/03/30 14:09:43;;;;;;;0.45;0.22;;;;;;;;;;5033904;28;20540;-62
2023/03/30 14:12:14;;;;;;;0.88;0.43;;;;;;;;;;5036003;28;20505;-62
2023/03/30 14:14:45;;;;;;;2.45;1.00;;;;;;;;;;5036144;28;20099;-63
2023/03/30 14:17:16;;;;;;;0.60;0.32;;;;;;;;;;5036077;28;20057;-65
2023/03/30 14:19:51;;;;;;;1.42;1.33;;;;;;;;;;5038776;28;20470;-63
2023/03/30 14:22:19;;;;;;;;;;;;;;;;;;5037725;28;20139;-63
2023/03/30 14:24:56;;;;;;;0.93;0.70;;;;;;;;;;5036315;28;20839;-64
2023/03/30 14:27:27;;;;;;;1.17;0.82;;;;;;;;;;5038344;28;20512;-64
2023/03/30 14:29:55;;;;;;;1.52;0.63;;;;;;;;;;5037885;28;20052;-65
2023/03/30 14:32:25;;;;;;;1.20;0.70;;;;;;;;;;5034598;28;20187;-64
2023/03/30 14:34:55;;;;;;;2.63;0.45;;;;;;;;;;5032876;28;20063;-63
2023/03/30 14:37:26;;;;;;;0.65;0.65;;;;;;;;;;5034652;28;20580;-64
2023/03/30 14:39:55;;;;;;;7.43;1.30;;;;;;;;;;5034709;28;20051;-63
2023/03/30 14:42:26;;;;;;;3.95;0.90;;;;;;;;;;5036641;28;20037;-62
2023/03/30 14:44:57;;;;;;;0.35;0.35;;;;;;;;;;5039625;28;20099;-63
2023/03/30 14:47:26;;;;;;;2.95;0.73;;;;;;;;;;5039837;28;20075;-64
2023/03/30 14:49:56;;;;;;;0.68;0.30;;;;;;;;;;5037867;28;20667;-64
2023/03/30 14:52:28;;;;;;;2.00;0.68;;;;;;;;;;5039044;28;20045;-64
2023/03/30 14:54:57;;;;;;;0.90;0.52;;;;;;;;;;5037481;28;20045;-61
2023/03/30 14:57:38;;;;;;;4.53;0.90;;;;;;;;;;5035479;28;20052;-62
2023/03/30 15:00:19;;;;;;;3.58;0.85;;;;;;;;;;5036341;28;20053;-62
2023/03/30 15:02:50;;;;;;;0.73;0.40;;;;;;;;;;5033557;28;20753;-63
2023/03/30 15:05:19;;;;;;;2.30;0.60;;;;;;;;;;5034759;28;20077;-65
2023/03/30 15:07:49;;;;;;;8.82;0.93;;;;;;;;;;5033811;28;20045;-66